Time;durP1;ratioP1;P1;durP2;ratioP2;P2;SDS_P1;SDS_P2;PMS_P1;PMS_P2;Temp;Humidity;BMP_temperature;BMP_pressure;BME280_temperature;BME280_humidity;BME280_pressure;Samples;Min_cycle;Max_cycle;Signal;HPM_P1;HPM_P2
2023/03/02 00:00:47;;;;;;;3.40;3.30;;;16.70;58.40;;;;;;4983462;28;43882;-70
2023/03/02 00:03:16;;;;;;;3.50;3.40;;;16.70;58.60;;;;;;4987377;28;43672;-69
2023/03/02 00:05:46;;;;;;;3.67;3.57;;;16.70;58.80;;;;;;5000067;28;43910;-69
2023/03/02 00:08:13;;;;;;;3.50;3.40;;;16.80;58.70;;;;;;4999550;28;43457;-70
2023/03/02 00:10:43;;;;;;;3.70;3.60;;;16.80;58.30;;;;;;5005731;28;43412;-72
2023/03/02 00:13:11;;;;;;;3.70;3.60;;;16.80;58.20;;;;;;5000678;28;43424;-69
2023/03/02 00:15:39;;;;;;;3.30;3.20;;;16.80;58.30;;;;;;5000552;28;43927;-70
2023/03/02 00:18:07;;;;;;;3.50;3.40;;;16.80;58.40;;;;;;4996321;28;43441;-70
2023/03/02 00:20:35;;;;;;;3.77;3.67;;;16.70;58.50;;;;;;4984477;28;43523;-68
2023/03/02 00:23:03;;;;;;;3.67;3.47;;;16.70;58.30;;;;;;5000298;28;43432;-72
2023/03/02 00:25:31;;;;;;;3.50;3.40;;;16.70;58.40;;;;;;5000182;28;43725;-70
2023/03/02 00:28:00;;;;;;;3.53;3.43;;;16.70;58.40;;;;;;4998695;28;43426;-69
2023/03/02 00:30:28;;;;;;;3.73;3.63;;;16.70;58.40;;;;;;4981998;28;43471;-69
2023/03/02 00:32:57;;;;;;;3.47;3.37;;;16.70;58.50;;;;;;4999316;28;43493;-70
2023/03/02 00:35:25;;;;;;;3.57;3.47;;;16.70;58.60;;;;;;4987583;28;45464;-70
2023/03/02 00:37:55;;;;;;;3.60;3.50;;;16.70;58.60;;;;;;4999548;28;43424;-69
2023/03/02 00:40:23;;;;;;;3.50;3.40;;;16.70;58.40;;;;;;4999860;28;43487;-70
2023/03/02 00:42:51;;;;;;;3.50;3.40;;;16.70;58.50;;;;;;4982381;28;43559;-70
2023/03/02 00:45:20;;;;;;;3.63;3.53;;;16.70;58.50;;;;;;4982093;28;45831;-71
2023/03/02 00:47:48;;;;;;;3.70;3.60;;;16.70;58.50;;;;;;4980436;28;44757;-72
2023/03/02 00:50:16;;;;;;;3.50;3.40;;;16.70;58.50;;;;;;4999075;28;43490;-69
2023/03/02 00:52:44;;;;;;;3.37;3.27;;;16.60;58.60;;;;;;4998845;28;43437;-70
2023/03/02 00:55:12;;;;;;;3.60;3.50;;;16.60;58.80;;;;;;4999311;28;43924;-73
2023/03/02 00:57:40;;;;;;;3.37;3.27;;;16.70;58.70;;;;;;4997457;28;43429;-70
2023/03/02 01:00:09;;;;;;;3.57;3.47;;;16.80;58.40;;;;;;4998855;28;43405;-69
2023/03/02 01:02:42;;;;;;;3.73;3.63;;;16.90;58.10;;;;;;4982155;28;43610;-69
2023/03/02 01:05:14;;;;;;;3.40;3.30;;;16.90;58.00;;;;;;4980891;28;45388;-70
2023/03/02 01:07:42;;;;;;;3.77;3.67;;;16.80;58.10;;;;;;4998486;28;43382;-71
2023/03/02 01:10:11;;;;;;;3.53;3.43;;;16.80;58.40;;;;;;4984531;28;43536;-71
2023/03/02 01:12:41;;;;;;;3.67;3.57;;;16.80;58.10;;;;;;5000255;28;44151;-70
2023/03/02 01:15:10;;;;;;;3.80;3.70;;;16.80;58.20;;;;;;4980915;28;45839;-69
2023/03/02 01:17:41;;;;;;;3.50;3.40;;;16.80;58.30;;;;;;4978338;28;44854;-70
2023/03/02 01:20:10;;;;;;;3.60;3.50;;;16.80;58.30;;;;;;4981813;28;43366;-71
2023/03/02 01:22:38;;;;;;;3.53;3.43;;;16.70;58.30;;;;;;4999049;28;43956;-71
2023/03/02 01:25:07;;;;;;;3.40;3.30;;;16.70;58.50;;;;;;4981166;28;45913;-71
2023/03/02 01:27:35;;;;;;;3.47;3.37;;;16.70;58.30;;;;;;4981186;28;45096;-70
2023/03/02 01:30:03;;;;;;;3.70;3.60;;;16.70;58.40;;;;;;4998991;28;43422;-70
2023/03/02 01:32:31;;;;;;;3.50;3.40;;;16.70;58.40;;;;;;4982030;28;44240;-69
2023/03/02 01:35:01;;;;;;;3.80;3.70;;;16.70;58.40;;;;;;4997944;28;43819;-69
2023/03/02 01:37:29;;;;;;;3.60;3.50;;;16.70;58.50;;;;;;4996275;28;43493;-69
2023/03/02 01:39:57;;;;;;;3.80;3.70;;;16.70;58.50;;;;;;4981895;28;43924;-70
2023/03/02 01:42:25;;;;;;;3.60;3.50;;;16.70;58.70;;;;;;4982293;28;43514;-70
2023/03/02 01:44:55;;;;;;;3.53;3.43;;;16.70;58.40;;;;;;4998307;28;43836;-69
2023/03/02 01:47:25;;;;;;;4.17;4.07;;;16.70;59.10;;;;;;4999087;28;43449;-68
2023/03/02 01:50:05;;;;;;;3.70;3.60;;;16.70;58.50;;;;;;4975119;28;43404;-69
2023/03/02 01:52:37;;;;;;;3.63;3.53;;;16.70;58.50;;;;;;4981032;28;43413;-69
2023/03/02 01:55:08;;;;;;;4.40;4.10;;;16.60;58.50;;;;;;4981137;28;46297;-70
2023/03/02 01:57:42;;;;;;;3.67;3.57;;;16.60;58.70;;;;;;4986792;28;44805;-69
2023/03/02 02:00:12;;;;;;;4.13;4.03;;;16.70;58.80;;;;;;4980954;28;43538;-69
2023/03/02 02:02:41;;;;;;;3.70;3.60;;;16.80;58.60;;;;;;4999148;28;43421;-70
2023/03/02 02:05:11;;;;;;;3.60;3.50;;;16.90;58.30;;;;;;4983236;28;44318;-68
2023/03/02 02:07:39;;;;;;;3.73;3.63;;;16.90;57.90;;;;;;4985766;28;45012;-71
2023/03/02 02:10:09;;;;;;;3.60;3.50;;;16.80;57.90;;;;;;4984875;28;43653;-69
2023/03/02 02:12:37;;;;;;;3.60;3.50;;;16.80;58.60;;;;;;4984966;28;43600;-70
2023/03/02 02:15:06;;;;;;;3.60;3.50;;;16.80;58.30;;;;;;4983960;28;45251;-69
2023/03/02 02:17:34;;;;;;;3.50;3.40;;;16.80;58.10;;;;;;5001323;28;43405;-70
2023/03/02 02:20:07;;;;;;;3.77;3.67;;;16.70;58.10;;;;;;4984041;28;43451;-69
2023/03/02 02:22:43;;;;;;;3.63;3.53;;;16.80;58.20;;;;;;4984267;28;43545;-68
2023/03/02 02:25:15;;;;;;;3.87;3.77;;;16.70;58.20;;;;;;4985008;28;45741;-69
2023/03/02 02:27:44;;;;;;;4.10;4.00;;;16.70;58.40;;;;;;5002216;28;43373;-70
2023/03/02 02:30:12;;;;;;;3.67;3.57;;;16.70;58.60;;;;;;5001850;28;43391;-73
2023/03/02 02:32:40;;;;;;;3.40;3.30;;;16.60;58.90;;;;;;4985283;28;43569;-68
2023/03/02 02:35:11;;;;;;;4.37;4.27;;;16.70;58.40;;;;;;5001253;28;43726;-69
2023/03/02 02:37:41;;;;;;;3.93;3.83;;;16.70;58.30;;;;;;4984196;28;44694;-70
2023/03/02 02:40:13;;;;;;;3.93;3.83;;;16.70;58.40;;;;;;4983875;28;43938;-69
2023/03/02 02:42:44;;;;;;;3.80;3.70;;;16.70;58.40;;;;;;4979739;28;43532;-74
2023/03/02 02:45:19;;;;;;;4.00;3.90;;;16.60;58.50;;;;;;4983785;28;45316;-71
2023/03/02 02:47:47;;;;;;;3.77;3.67;;;16.60;58.80;;;;;;4996664;28;43410;-68
2023/03/02 02:50:18;;;;;;;3.50;3.40;;;16.70;58.70;;;;;;5000823;28;43493;-69
2023/03/02 02:52:46;;;;;;;3.90;3.80;;;16.80;58.40;;;;;;5001763;28;43361;-68
2023/03/02 02:55:15;;;;;;;3.77;3.67;;;16.80;58.00;;;;;;5000362;28;43904;-71
2023/03/02 02:57:45;;;;;;;3.50;3.40;;;16.80;58.00;;;;;;4984898;28;44678;-71
2023/03/02 03:00:17;;;;;;;4.13;4.03;;;16.80;58.00;;;;;;4983803;28;43471;-70
2023/03/02 03:02:46;;;;;;;4.00;3.90;;;16.80;58.30;;;;;;4984214;28;43549;-68
2023/03/02 03:05:14;;;;;;;3.60;3.50;;;16.80;58.10;;;;;;4982817;28;44723;-69
2023/03/02 03:07:42;;;;;;;4.00;3.90;;;16.80;58.20;;;;;;4982468;28;43454;-71
2023/03/02 03:10:12;;;;;;;3.40;3.30;;;16.70;58.20;;;;;;5006358;28;43305;-68
2023/03/02 03:12:40;;;;;;;3.50;3.40;;;16.70;58.20;;;;;;4984528;28;43506;-70
2023/03/02 03:15:10;;;;;;;3.80;3.70;;;16.70;58.20;;;;;;4985664;28;45378;-70
2023/03/02 03:17:38;;;;;;;3.80;3.70;;;16.70;58.30;;;;;;4997509;28;43385;-70
2023/03/02 03:20:08;;;;;;;3.73;3.63;;;16.60;58.40;;;;;;4982699;28;43468;-69
2023/03/02 03:22:40;;;;;;;3.70;3.60;;;16.60;58.20;;;;;;4986496;28;43587;-71
2023/03/02 03:25:14;;;;;;;4.17;4.07;;;16.70;58.40;;;;;;4982415;28;45986;-70
2023/03/02 03:27:45;;;;;;;4.13;4.03;;;16.60;58.30;;;;;;4982142;28;44494;-70
2023/03/02 03:30:15;;;;;;;4.00;3.90;;;16.60;58.30;;;;;;4982686;28;43411;-69
2023/03/02 03:32:44;;;;;;;3.50;3.40;;;16.60;58.40;;;;;;4983482;28;43568;-71
2023/03/02 03:35:14;;;;;;;3.90;3.80;;;16.60;58.60;;;;;;4985450;28;44768;-71
2023/03/02 03:37:42;;;;;;;3.90;3.80;;;16.60;58.70;;;;;;4983229;28;43483;-70
2023/03/02 03:40:11;;;;;;;4.00;3.90;;;16.70;58.40;;;;;;4977518;28;43418;-69
2023/03/02 03:42:42;;;;;;;3.80;3.70;;;16.80;58.10;;;;;;4976924;28;43387;-71
2023/03/02 03:45:10;;;;;;;4.00;3.90;;;16.80;58.10;;;;;;4983029;28;43921;-71
2023/03/02 03:47:40;;;;;;;4.03;3.93;;;16.70;58.00;;;;;;4982703;28;43468;-71
2023/03/02 03:50:11;;;;;;;4.53;4.33;;;16.70;58.10;;;;;;4982299;28;43282;-69
2023/03/02 03:52:40;;;;;;;4.13;4.03;;;16.70;58.40;;;;;;4983381;28;43543;-69
2023/03/02 03:55:13;;;;;;;3.90;3.80;;;16.70;58.20;;;;;;4987078;28;46243;-71
2023/03/02 03:57:43;;;;;;;3.87;3.77;;;16.70;58.20;;;;;;4982467;28;44849;-70
2023/03/02 04:00:15;;;;;;;3.90;3.80;;;16.70;58.20;;;;;;4982951;28;43414;-73
2023/03/02 04:02:51;;;;;;;3.80;3.70;;;16.70;58.30;;;;;;4983665;28;44096;-70
2023/03/02 04:05:20;;;;;;;4.70;4.60;;;16.60;58.30;;;;;;4982627;28;46266;-70
2023/03/02 04:07:51;;;;;;;4.27;4.17;;;16.60;58.60;;;;;;4981927;28;44443;-69
2023/03/02 04:10:20;;;;;;;4.57;4.47;;;16.60;58.30;;;;;;4985519;28;43425;-70
2023/03/02 04:12:50;;;;;;;4.07;3.97;;;16.60;58.30;;;;;;4979892;28;43517;-70
2023/03/02 04:15:18;;;;;;;4.30;4.10;;;16.60;58.30;;;;;;4981654;28;44959;-69
2023/03/02 04:17:48;;;;;;;4.70;4.50;;;16.60;58.30;;;;;;4977934;28;43366;-69
2023/03/02 04:20:20;;;;;;;4.27;4.17;;;16.60;58.30;;;;;;4981748;28;43458;-69
2023/03/02 04:22:52;;;;;;;4.10;4.00;;;16.60;58.40;;;;;;4982187;28;43473;-69
2023/03/02 04:25:22;;;;;;;4.40;4.20;;;16.60;58.70;;;;;;4982858;28;44017;-71
2023/03/02 04:27:54;;;;;;;4.20;4.10;;;16.70;58.60;;;;;;4982433;28;43983;-69
2023/03/02 04:30:25;;;;;;;4.20;4.10;;;16.80;58.40;;;;;;4981865;28;43411;-69
2023/03/02 04:32:56;;;;;;;4.23;4.13;;;16.80;57.90;;;;;;4982263;28;43489;-69
2023/03/02 04:35:28;;;;;;;4.10;4.00;;;16.80;57.70;;;;;;4981645;28;43832;-69
2023/03/02 04:37:56;;;;;;;4.73;4.53;;;16.80;57.80;;;;;;4981216;28;43445;-70
2023/03/02 04:40:24;;;;;;;4.20;4.10;;;16.80;58.10;;;;;;4986154;28;43370;-68
2023/03/02 04:42:52;;;;;;;4.00;3.90;;;16.80;58.10;;;;;;4999110;28;43531;-69
2023/03/02 04:45:20;;;;;;;3.93;3.83;;;16.80;58.00;;;;;;4999339;28;43840;-70
2023/03/02 04:47:48;;;;;;;4.20;4.10;;;16.70;58.00;;;;;;4999913;28;43664;-69
2023/03/02 04:50:16;;;;;;;3.90;3.80;;;16.70;58.10;;;;;;4978030;28;43439;-68
2023/03/02 04:52:45;;;;;;;4.33;4.23;;;16.70;58.20;;;;;;4978311;28;44053;-70
2023/03/02 04:55:16;;;;;;;4.20;4.10;;;16.60;58.20;;;;;;4977683;28;43626;-69
2023/03/02 04:57:44;;;;;;;4.20;4.10;;;16.60;58.50;;;;;;4979725;28;43408;-69
2023/03/02 05:00:13;;;;;;;4.23;4.10;;;16.60;58.10;;;;;;4978614;28;43439;-73
2023/03/02 05:02:41;;;;;;;4.20;4.00;;;16.60;58.30;;;;;;4980241;28;43421;-73
2023/03/02 05:05:11;;;;;;;4.20;4.10;;;16.60;58.30;;;;;;4977997;28;45791;-70
2023/03/02 05:07:39;;;;;;;4.27;4.17;;;16.60;58.30;;;;;;4982788;28;43539;-69
2023/03/02 05:10:09;;;;;;;4.30;4.20;;;16.60;58.40;;;;;;4985984;28;43468;-70
2023/03/02 05:12:53;;;;;;;4.30;4.20;;;16.60;58.50;;;;;;4978953;28;43445;-70
2023/03/02 05:15:21;;;;;;;4.23;4.10;;;16.60;58.80;;;;;;4979213;28;43735;-71
2023/03/02 05:17:49;;;;;;;4.50;4.30;;;16.60;58.70;;;;;;4975366;28;43516;-69
2023/03/02 05:20:18;;;;;;;4.43;4.33;;;16.70;58.40;;;;;;4978701;28;43477;-69
2023/03/02 05:22:46;;;;;;;4.20;4.10;;;16.80;58.00;;;;;;4977821;28;43733;-69
2023/03/02 05:25:15;;;;;;;4.73;4.53;;;16.80;58.10;;;;;;4978595;28;44057;-69
2023/03/02 05:27:43;;;;;;;4.67;4.47;;;16.80;58.10;;;;;;4977025;28;45000;-71
2023/03/02 05:30:12;;;;;;;4.20;4.10;;;16.70;57.90;;;;;;4979778;28;43990;-69
2023/03/02 05:32:40;;;;;;;4.80;4.70;;;16.70;58.10;;;;;;4979410;28;43438;-70
2023/03/02 05:35:09;;;;;;;4.10;4.00;;;16.70;58.20;;;;;;4982967;28;43834;-69
2023/03/02 05:37:40;;;;;;;4.13;4.03;;;16.70;58.30;;;;;;4988247;28;43385;-69
2023/03/02 05:40:09;;;;;;;4.53;4.43;;;16.70;58.30;;;;;;4984304;28;43402;-70
2023/03/02 05:42:38;;;;;;;4.57;4.37;;;16.70;58.40;;;;;;4980155;28;43622;-69
2023/03/02 05:45:08;;;;;;;4.60;4.40;;;16.70;58.40;;;;;;4982876;28;44590;-71
2023/03/02 05:47:36;;;;;;;4.87;4.67;;;16.70;58.40;;;;;;4980881;28;43427;-70
2023/03/02 05:50:06;;;;;;;4.30;4.20;;;16.70;58.40;;;;;;4991914;28;43582;-68
2023/03/02 05:52:33;;;;;;;4.87;4.67;;;16.80;58.30;;;;;;4982097;28;43513;-69
2023/03/02 05:55:01;;;;;;;4.20;4.10;;;16.90;58.00;;;;;;4995305;28;43833;-69
2023/03/02 05:57:29;;;;;;;4.70;4.50;;;17.10;57.80;;;;;;5000373;28;43385;-71
2023/03/02 05:59:58;;;;;;;4.10;4.00;;;17.20;57.50;;;;;;4994797;28;43496;-69
2023/03/02 06:02:26;;;;;;;4.40;4.20;;;17.40;57.20;;;;;;4985417;28;43470;-71
2023/03/02 06:04:55;;;;;;;4.23;4.13;;;17.50;56.80;;;;;;5002140;28;43819;-71
2023/03/02 06:07:23;;;;;;;4.57;4.47;;;17.60;56.60;;;;;;5001611;28;43425;-72
2023/03/02 06:09:51;;;;;;;4.40;4.30;;;17.70;56.40;;;;;;5003275;28;43461;-70
2023/03/02 06:12:19;;;;;;;4.93;4.73;;;17.80;56.20;;;;;;5001698;28;43529;-70
2023/03/02 06:14:47;;;;;;;4.20;4.00;;;17.80;56.00;;;;;;5001539;28;44039;-70
2023/03/02 06:17:16;;;;;;;4.00;3.90;;;17.90;56.00;;;;;;4998011;28;43456;-71
2023/03/02 06:19:44;;;;;;;4.07;3.97;;;17.80;56.00;;;;;;4984089;28;43474;-70
2023/03/02 06:22:12;;;;;;;3.93;3.83;;;17.70;55.90;;;;;;4984571;28;43598;-74
2023/03/02 06:24:40;;;;;;;4.10;4.00;;;17.50;56.00;;;;;;4983336;28;46153;-70
2023/03/02 06:27:08;;;;;;;4.47;4.27;;;17.40;56.40;;;;;;5001819;28;43344;-70
2023/03/02 06:29:36;;;;;;;3.90;3.80;;;17.30;57.20;;;;;;5001198;28;43704;-70
2023/03/02 06:32:04;;;;;;;4.30;4.20;;;17.20;57.20;;;;;;5001427;28;43983;-69
2023/03/02 06:34:33;;;;;;;4.33;4.23;;;17.10;57.00;;;;;;5001347;28;43852;-68
2023/03/02 06:37:02;;;;;;;4.40;4.27;;;17.10;57.20;;;;;;5001178;28;43414;-69
2023/03/02 06:39:30;;;;;;;4.77;4.57;;;17.00;57.30;;;;;;5000998;28;43486;-70
2023/03/02 06:41:59;;;;;;;4.47;4.37;;;16.90;57.40;;;;;;5002091;28;43381;-70
2023/03/02 06:44:26;;;;;;;4.20;4.10;;;16.80;57.80;;;;;;5001346;28;43927;-71
2023/03/02 06:46:54;;;;;;;4.40;4.30;;;16.80;57.70;;;;;;5000367;28;43384;-70
2023/03/02 06:49:23;;;;;;;4.23;4.03;;;16.80;57.70;;;;;;4984486;28;43391;-69
2023/03/02 06:51:52;;;;;;;4.67;4.47;;;16.80;57.80;;;;;;5001327;28;43457;-69
2023/03/02 06:54:20;;;;;;;4.80;4.60;;;16.80;57.90;;;;;;5001354;28;43889;-68
2023/03/02 06:56:50;;;;;;;4.50;4.40;;;16.80;58.00;;;;;;5000871;28;43439;-70
2023/03/02 06:59:18;;;;;;;4.20;4.10;;;16.70;58.00;;;;;;4996293;28;43443;-69
2023/03/02 07:01:48;;;;;;;4.07;3.97;;;16.80;58.40;;;;;;5001337;28;43447;-68
2023/03/02 07:04:16;;;;;;;4.17;4.07;;;16.80;58.30;;;;;;5000751;28;43755;-70
2023/03/02 07:06:44;;;;;;;4.30;4.20;;;16.90;58.00;;;;;;4983671;28;44899;-69
2023/03/02 07:09:13;;;;;;;4.40;4.30;;;17.00;57.50;;;;;;4984006;28;43501;-73
2023/03/02 07:11:41;;;;;;;4.30;4.20;;;17.00;57.40;;;;;;5006929;28;43423;-69
2023/03/02 07:14:09;;;;;;;4.37;4.27;;;16.90;57.50;;;;;;5000690;28;43903;-69
2023/03/02 07:16:37;;;;;;;4.40;4.30;;;16.90;57.90;;;;;;4988765;28;44770;-71
2023/03/02 07:19:05;;;;;;;4.13;4.03;;;16.90;57.60;;;;;;4979396;28;43411;-70
2023/03/02 07:21:33;;;;;;;4.63;4.53;;;16.90;57.60;;;;;;5000324;28;43377;-70
2023/03/02 07:24:01;;;;;;;4.47;4.37;;;16.80;58.00;;;;;;4983073;28;45713;-70
2023/03/02 07:26:30;;;;;;;4.60;4.40;;;16.80;57.70;;;;;;4983448;28;45133;-69
2023/03/02 07:28:59;;;;;;;4.40;4.30;;;16.80;57.80;;;;;;5000633;28;43333;-68
2023/03/02 07:31:27;;;;;;;4.90;4.70;;;16.70;58.20;;;;;;5000844;28;43458;-69
2023/03/02 07:33:55;;;;;;;4.90;4.70;;;16.70;58.00;;;;;;5000522;28;43596;-69
2023/03/02 07:36:25;;;;;;;4.50;4.37;;;16.70;58.00;;;;;;4982783;28;45042;-69
2023/03/02 07:38:53;;;;;;;4.90;4.70;;;16.70;58.00;;;;;;4983078;28;43527;-69
2023/03/02 07:41:21;;;;;;;4.57;4.37;;;16.70;58.10;;;;;;5000354;28;43698;-70
2023/03/02 07:43:50;;;;;;;4.47;4.33;;;16.70;58.10;;;;;;4999632;28;43751;-72
2023/03/02 07:46:18;;;;;;;4.70;4.60;;;16.70;58.30;;;;;;5000461;28;43406;-68
2023/03/02 07:48:46;;;;;;;4.37;4.13;;;16.70;58.10;;;;;;4984018;28;43469;-69
2023/03/02 07:51:14;;;;;;;4.60;4.50;;;16.70;58.10;;;;;;5000477;28;43417;-69
2023/03/02 07:53:42;;;;;;;4.43;4.33;;;16.70;58.10;;;;;;4984971;28;45945;-71
2023/03/02 07:56:11;;;;;;;4.77;4.57;;;16.70;58.00;;;;;;4999054;28;43421;-69
2023/03/02 07:58:38;;;;;;;4.80;4.67;;;16.70;58.20;;;;;;5000365;28;43441;-69
2023/03/02 08:01:08;;;;;;;4.40;4.30;;;16.60;58.20;;;;;;5000464;28;43414;-69
2023/03/02 08:03:36;;;;;;;4.30;4.20;;;16.60;58.50;;;;;;4981755;28;45882;-71
2023/03/02 08:06:06;;;;;;;4.40;4.30;;;16.70;58.40;;;;;;4999074;28;43385;-70
2023/03/02 08:08:34;;;;;;;4.77;4.57;;;16.80;58.20;;;;;;4982560;28;43403;-68
2023/03/02 08:11:06;;;;;;;4.50;4.40;;;16.90;57.90;;;;;;5002611;28;43504;-69
2023/03/02 08:13:34;;;;;;;4.80;4.60;;;16.90;57.50;;;;;;4999421;28;43914;-70
2023/03/02 08:16:02;;;;;;;4.30;4.20;;;16.90;57.60;;;;;;4999813;28;43664;-68
2023/03/02 08:18:31;;;;;;;4.23;4.03;;;16.90;58.00;;;;;;4981447;28;44154;-71
2023/03/02 08:20:59;;;;;;;3.83;3.73;;;16.90;57.70;;;;;;4982403;28;43549;-69
2023/03/02 08:23:27;;;;;;;4.47;4.37;;;16.80;57.70;;;;;;4986057;28;46114;-70
2023/03/02 08:25:55;;;;;;;4.60;4.40;;;16.80;57.70;;;;;;4996831;28;43432;-68
2023/03/02 08:28:23;;;;;;;4.13;4.03;;;16.80;57.80;;;;;;4982510;28;43451;-69
2023/03/02 08:30:56;;;;;;;4.17;4.07;;;16.70;57.90;;;;;;5000279;28;43380;-69
2023/03/02 08:33:24;;;;;;;4.27;4.17;;;16.70;58.20;;;;;;4999306;28;43636;-69
2023/03/02 08:35:57;;;;;;;4.20;4.10;;;16.70;58.10;;;;;;4981471;28;43441;-70
2023/03/02 08:38:25;;;;;;;4.80;4.60;;;16.70;58.10;;;;;;5000342;28;43498;-69
2023/03/02 08:40:53;;;;;;;4.60;4.40;;;16.70;58.10;;;;;;4999676;28;43377;-69
2023/03/02 08:43:21;;;;;;;4.80;4.67;;;16.60;58.10;;;;;;4999632;28;43854;-71
2023/03/02 08:45:50;;;;;;;4.30;4.20;;;16.60;58.20;;;;;;4982063;28;44997;-69
2023/03/02 08:48:18;;;;;;;4.50;4.40;;;16.60;58.20;;;;;;4998330;28;43466;-69
2023/03/02 08:50:54;;;;;;;4.23;4.13;;;16.60;58.60;;;;;;4999993;28;43430;-68
2023/03/02 08:53:23;;;;;;;4.70;4.50;;;16.70;58.50;;;;;;4998722;28;43987;-69
2023/03/02 08:55:51;;;;;;;4.70;4.50;;;16.70;58.10;;;;;;4980594;28;44856;-70
2023/03/02 08:58:19;;;;;;;4.50;4.40;;;16.70;57.90;;;;;;4975395;28;43963;-69
2023/03/02 09:00:48;;;;;;;4.40;4.30;;;16.70;58.00;;;;;;4998283;28;43330;-69
2023/03/02 09:03:16;;;;;;;4.40;4.30;;;16.70;58.00;;;;;;4993000;28;43868;-69
2023/03/02 09:05:44;;;;;;;4.17;4.07;;;16.70;58.30;;;;;;4999853;28;43425;-71
2023/03/02 09:08:12;;;;;;;4.20;4.10;;;16.70;58.20;;;;;;4981513;28;44101;-75
2023/03/02 09:10:41;;;;;;;3.93;3.80;;;16.70;58.20;;;;;;5001375;28;43719;-72
2023/03/02 09:13:09;;;;;;;4.43;4.33;;;16.70;58.20;;;;;;4998072;28;43918;-71
2023/03/02 09:15:37;;;;;;;4.20;4.10;;;16.60;58.20;;;;;;4995859;28;43461;-72
2023/03/02 09:18:05;;;;;;;4.40;4.30;;;16.60;58.20;;;;;;4996867;28;43444;-70
2023/03/02 09:20:34;;;;;;;4.10;4.00;;;16.60;58.30;;;;;;4999904;28;43347;-72
2023/03/02 09:23:02;;;;;;;4.13;3.93;;;16.60;58.50;;;;;;4999028;28;43903;-70
2023/03/02 09:25:30;;;;;;;4.47;4.27;;;16.60;58.60;;;;;;4999217;28;43414;-70
2023/03/02 09:27:59;;;;;;;4.90;4.70;;;16.70;58.40;;;;;;4981529;28;43505;-72
2023/03/02 09:30:27;;;;;;;4.43;4.33;;;16.70;58.00;;;;;;4999974;28;43432;-71
2023/03/02 09:32:55;;;;;;;4.20;4.10;;;16.70;58.00;;;;;;4998100;28;43614;-71
2023/03/02 09:35:23;;;;;;;4.40;4.30;;;16.70;58.00;;;;;;4998540;28;43409;-70
2023/03/02 09:37:51;;;;;;;4.40;4.30;;;16.70;58.10;;;;;;4999589;28;43423;-70
2023/03/02 09:40:20;;;;;;;4.60;4.40;;;16.70;58.30;;;;;;4999480;28;43433;-70
2023/03/02 09:42:54;;;;;;;4.17;4.00;;;16.70;58.30;;;;;;4981415;28;46219;-69
2023/03/02 09:45:47;;;;;;;4.27;4.13;;;16.70;58.20;;;;;;4999143;28;43374;-70
2023/03/02 09:48:19;;;;;;;4.00;3.90;;;16.60;58.20;;;;;;4991618;28;43456;-70
2023/03/02 09:50:52;;;;;;;4.03;3.93;;;16.60;58.20;;;;;;4999888;28;43468;-69
2023/03/02 09:53:39;;;;;;;4.27;4.17;;;16.60;58.30;;;;;;4997825;28;43852;-70
2023/03/02 09:56:12;;;;;;;4.30;4.20;;;16.60;58.70;;;;;;4980050;28;44331;-68
2023/03/02 09:58:40;;;;;;;4.37;4.27;;;16.60;58.70;;;;;;4999191;28;43369;-69
2023/03/02 10:01:13;;;;;;;4.07;3.97;;;16.80;58.50;;;;;;4999432;28;43407;-72
2023/03/02 10:03:47;;;;;;;4.17;4.07;;;16.80;58.10;;;;;;4998086;28;43850;-70
2023/03/02 10:06:15;;;;;;;4.30;4.10;;;16.80;58.10;;;;;;4980784;28;44696;-68
2023/03/02 10:08:43;;;;;;;4.23;4.13;;;16.80;58.10;;;;;;4980297;28;43456;-72
2023/03/02 10:11:14;;;;;;;3.73;3.63;;;16.80;58.30;;;;;;5000470;28;43572;-69
2023/03/02 10:13:45;;;;;;;4.37;4.27;;;16.70;58.30;;;;;;4997783;28;43939;-74
2023/03/02 10:16:23;;;;;;;4.27;4.17;;;16.70;58.30;;;;;;4997719;28;43429;-69
2023/03/02 10:18:54;;;;;;;4.23;4.13;;;16.70;58.30;;;;;;4994339;28;43477;-71
2023/03/02 10:21:24;;;;;;;4.30;4.20;;;16.70;58.30;;;;;;4992103;28;43430;-71
2023/03/02 10:23:56;;;;;;;4.83;4.63;;;16.70;58.40;;;;;;4979971;28;45622;-69
2023/03/02 10:26:29;;;;;;;4.20;4.10;;;16.70;58.40;;;;;;4997701;28;43892;-69
2023/03/02 10:29:01;;;;;;;4.20;4.10;;;16.60;58.50;;;;;;4999616;28;43767;-71
2023/03/02 10:31:31;;;;;;;4.40;4.30;;;16.70;59.10;;;;;;5001608;28;43475;-69
2023/03/02 10:33:59;;;;;;;4.43;4.23;;;16.70;58.50;;;;;;5001511;28;43776;-69
2023/03/02 10:36:28;;;;;;;3.90;3.80;;;16.70;58.60;;;;;;5001130;28;43334;-69
2023/03/02 10:38:57;;;;;;;4.30;4.20;;;16.70;58.60;;;;;;4983535;28;43502;-69
2023/03/02 10:41:26;;;;;;;4.53;4.33;;;16.70;58.60;;;;;;4984044;28;43588;-69
2023/03/02 10:43:55;;;;;;;4.23;4.13;;;16.70;58.70;;;;;;4985854;28;44344;-69
2023/03/02 10:46:23;;;;;;;3.97;3.87;;;16.70;58.70;;;;;;4988035;28;45173;-69
2023/03/02 10:48:55;;;;;;;4.17;4.07;;;16.80;58.60;;;;;;4981958;28;43528;-70
2023/03/02 10:51:24;;;;;;;3.57;3.47;;;16.80;58.40;;;;;;4984597;28;43424;-72
2023/03/02 10:54:03;;;;;;;4.00;3.90;;;16.80;58.40;;;;;;5001102;28;43656;-70
2023/03/02 10:56:31;;;;;;;3.70;3.60;;;16.80;58.40;;;;;;5001259;28;43459;-70
2023/03/02 10:59:02;;;;;;;3.70;3.60;;;16.80;58.50;;;;;;5001133;28;43407;-69
2023/03/02 11:01:30;;;;;;;3.67;3.57;;;16.80;58.60;;;;;;5001543;28;43417;-69
2023/03/02 11:04:00;;;;;;;3.47;3.37;;;16.80;58.60;;;;;;5000390;28;44026;-71
2023/03/02 11:06:29;;;;;;;3.90;3.80;;;16.80;58.70;;;;;;5000187;28;43480;-69
2023/03/02 11:08:59;;;;;;;4.37;4.17;;;16.80;58.60;;;;;;4983589;28;43497;-69
2023/03/02 11:11:27;;;;;;;3.80;3.70;;;16.80;58.60;;;;;;5003267;28;43429;-69
2023/03/02 11:13:56;;;;;;;4.00;3.90;;;16.80;58.70;;;;;;5000774;28;43877;-70
2023/03/02 11:16:27;;;;;;;3.80;3.70;;;16.80;58.70;;;;;;5000961;28;43394;-71
2023/03/02 11:18:57;;;;;;;3.90;3.80;;;16.80;58.80;;;;;;4998333;28;43374;-71
2023/03/02 11:21:30;;;;;;;3.63;3.53;;;16.80;58.80;;;;;;4999599;28;43728;-69
2023/03/02 11:24:00;;;;;;;4.03;3.93;;;16.80;58.80;;;;;;4983017;28;46132;-70
2023/03/02 11:26:29;;;;;;;3.83;3.73;;;16.80;58.80;;;;;;5000772;28;43426;-69
2023/03/02 11:28:59;;;;;;;3.50;3.40;;;16.80;58.90;;;;;;4983188;28;43417;-71
2023/03/02 11:31:32;;;;;;;3.80;3.70;;;16.80;58.90;;;;;;4996642;28;43442;-69
2023/03/02 11:34:06;;;;;;;3.50;3.40;;;16.70;58.80;;;;;;4983489;28;45661;-68
2023/03/02 11:36:52;;;;;;;3.73;3.63;;;16.80;58.80;;;;;;5000711;28;43405;-69
2023/03/02 11:39:57;;;;;;;3.83;3.73;;;16.80;58.60;;;;;;4998954;28;43451;-72
2023/03/02 11:42:26;;;;;;;3.67;3.57;;;16.90;58.40;;;;;;4996583;28;44068;-69
2023/03/02 11:44:55;;;;;;;3.70;3.60;;;16.90;58.40;;;;;;4999978;28;43712;-69
2023/03/02 11:47:22;;;;;;;4.10;4.00;;;16.90;58.50;;;;;;5000998;28;43389;-69
2023/03/02 11:49:54;;;;;;;3.80;3.70;;;16.90;58.60;;;;;;4982270;28;43493;-69
2023/03/02 11:52:24;;;;;;;3.50;3.40;;;16.90;58.60;;;;;;5001410;28;43511;-69
2023/03/02 11:54:53;;;;;;;3.73;3.63;;;16.90;58.70;;;;;;4993997;28;43888;-70
2023/03/02 11:57:22;;;;;;;3.67;3.57;;;16.90;58.70;;;;;;4983110;28;44753;-71
2023/03/02 11:59:50;;;;;;;3.57;3.47;;;16.90;58.80;;;;;;5000471;28;43404;-69
2023/03/02 12:02:18;;;;;;;3.60;3.50;;;16.80;58.80;;;;;;5000446;28;43529;-69
2023/03/02 12:04:47;;;;;;;3.70;3.60;;;16.80;58.80;;;;;;4995162;28;43622;-70
2023/03/02 12:07:21;;;;;;;3.60;3.50;;;16.80;58.80;;;;;;4999822;28;43421;-70
2023/03/02 12:10:05;;;;;;;3.80;3.70;;;16.80;58.90;;;;;;5004513;28;43420;-68
2023/03/02 12:12:40;;;;;;;3.63;3.47;;;16.80;58.90;;;;;;5000740;28;43427;-70
2023/03/02 12:15:44;;;;;;;3.47;3.37;;;16.80;58.90;;;;;;4982708;28;44908;-69
2023/03/02 12:18:31;;;;;;;3.20;3.10;;;16.80;58.90;;;;;;4997393;28;43448;-68
2023/03/02 12:21:03;;;;;;;3.60;3.50;;;16.80;59.00;;;;;;5001433;28;44470;-69
2023/03/02 12:23:31;;;;;;;3.40;3.30;;;16.80;58.90;;;;;;5000413;28;43478;-68
2023/03/02 12:26:06;;;;;;;3.73;3.60;;;16.80;58.80;;;;;;4982727;28;45745;-69
2023/03/02 12:28:35;;;;;;;3.50;3.40;;;16.90;58.80;;;;;;4995096;28;43442;-72
2023/03/02 12:31:08;;;;;;;3.47;3.37;;;16.90;58.70;;;;;;5000105;28;43424;-71
2023/03/02 12:33:45;;;;;;;3.23;3.13;;;16.90;58.70;;;;;;5001055;28;43406;-70
2023/03/02 12:36:15;;;;;;;3.40;3.30;;;16.90;58.80;;;;;;4999860;28;43936;-72
2023/03/02 12:38:46;;;;;;;3.33;3.23;;;16.90;58.80;;;;;;4999766;28;43510;-74
2023/03/02 12:41:50;;;;;;;3.50;3.40;;;16.90;58.90;;;;;;5000095;28;43682;-70
2023/03/02 12:44:26;;;;;;;3.43;3.33;;;16.90;58.80;;;;;;4953980;28;43434;-70
2023/03/02 12:46:55;;;;;;;3.63;3.53;;;16.90;59.50;;;;;;4999525;28;43676;-70
2023/03/02 12:49:35;;;;;;;3.40;3.30;;;16.90;58.90;;;;;;4999532;28;43421;-69
2023/03/02 12:52:03;;;;;;;3.27;3.17;;;16.90;59.00;;;;;;5000045;28;43402;-70
2023/03/02 12:54:32;;;;;;;3.20;3.10;;;16.80;58.90;;;;;;4984334;28;43445;-68
2023/03/02 12:57:14;;;;;;;3.27;3.17;;;16.90;59.00;;;;;;5000025;28;43883;-70
2023/03/02 12:59:42;;;;;;;3.17;3.10;;;16.90;58.80;;;;;;4999451;28;43451;-68
2023/03/02 13:02:14;;;;;;;3.13;3.03;;;16.90;58.70;;;;;;4999803;28;43359;-68